Time;durP1;ratioP1;P1;durP2;ratioP2;P2;SDS_P1;SDS_P2;PMS_P1;PMS_P2;Temp;Humidity;BMP_temperature;BMP_pressure;BME280_temperature;BME280_humidity;BME280_pressure;Samples;Min_cycle;Max_cycle;Signal;HPM_P1;HPM_P2
2022/09/15 00:00:56;;;;;;;5.38;1.40;;;;;;;;;;4805846;29;20489;-68
2022/09/15 00:03:23;;;;;;;6.82;1.15;;;;;;;;;;4806032;29;20053;-68
2022/09/15 00:05:50;;;;;;;4.50;1.40;;;;;;;;;;4804806;29;20375;-68
2022/09/15 00:08:16;;;;;;;2.75;1.30;;;;;;;;;;4805890;29;20042;-68
2022/09/15 00:10:52;;;;;;;5.28;1.30;;;;;;;;;;4806098;29;20037;-68
2022/09/15 00:13:19;;;;;;;4.07;1.25;;;;;;;;;;4805640;29;20055;-68
2022/09/15 00:15:46;;;;;;;4.10;1.10;;;;;;;;;;4805739;29;20031;-68
2022/09/15 00:18:12;;;;;;;6.97;1.38;;;;;;;;;;4805988;29;20030;-68
2022/09/15 00:20:42;;;;;;;3.70;1.15;;;;;;;;;;4805676;29;20029;-68
2022/09/15 00:23:09;;;;;;;8.63;1.20;;;;;;;;;;4805686;29;20039;-68
2022/09/15 00:25:41;;;;;;;4.25;1.60;;;;;;;;;;4805735;29;20038;-68
2022/09/15 00:28:07;;;;;;;3.72;1.42;;;;;;;;;;4805674;29;20029;-68
2022/09/15 00:30:33;;;;;;;3.72;1.10;;;;;;;;;;4805470;29;20027;-68
2022/09/15 00:33:00;;;;;;;9.68;1.30;;;;;;;;;;4805037;29;20135;-68
2022/09/15 00:35:26;;;;;;;3.78;1.35;;;;;;;;;;4805530;29;20023;-68
2022/09/15 00:37:52;;;;;;;5.13;1.40;;;;;;;;;;4805363;29;20039;-68
2022/09/15 00:40:19;;;;;;;6.13;1.92;;;;;;;;;;4805626;29;20035;-68
2022/09/15 00:42:45;;;;;;;4.70;1.50;;;;;;;;;;4805273;29;20031;-68
2022/09/15 00:45:14;;;;;;;7.07;1.55;;;;;;;;;;4805329;29;20040;-68
2022/09/15 00:47:41;;;;;;;4.57;1.48;;;;;;;;;;4804980;29;20019;-68
2022/09/15 00:50:10;;;;;;;2.78;1.20;;;;;;;;;;4804980;29;20039;-68
2022/09/15 00:52:40;;;;;;;8.52;1.45;;;;;;;;;;4805464;29;20034;-68
2022/09/15 00:55:09;;;;;;;4.45;1.30;;;;;;;;;;4805135;29;20461;-67
2022/09/15 00:57:38;;;;;;;4.07;1.50;;;;;;;;;;4805227;29;20041;-68
2022/09/15 01:00:08;;;;;;;3.67;1.50;;;;;;;;;;4805234;29;20031;-68
2022/09/15 01:02:35;;;;;;;3.35;1.30;;;;;;;;;;4804680;29;20057;-68
2022/09/15 01:05:02;;;;;;;3.95;1.38;;;;;;;;;;4804348;29;20507;-68
2022/09/15 01:07:37;;;;;;;6.90;1.08;;;;;;;;;;4805148;29;20441;-68
2022/09/15 01:10:08;;;;;;;2.90;1.10;;;;;;;;;;4805062;29;20041;-68
2022/09/15 01:12:35;;;;;;;5.43;1.45;;;;;;;;;;4804733;29;20054;-68
2022/09/15 01:15:01;;;;;;;4.43;1.38;;;;;;;;;;4804920;29;20045;-68
2022/09/15 01:17:45;;;;;;;3.95;1.10;;;;;;;;;;4804851;29;20093;-68
2022/09/15 01:20:40;;;;;;;3.97;1.10;;;;;;;;;;4805194;29;20035;-68
2022/09/15 01:23:21;;;;;;;3.40;1.38;;;;;;;;;;4804744;29;20053;-68
2022/09/15 01:25:56;;;;;;;4.07;1.17;;;;;;;;;;4805156;29;20023;-68
2022/09/15 01:28:35;;;;;;;4.30;1.38;;;;;;;;;;4804922;29;20043;-68
2022/09/15 01:31:01;;;;;;;9.40;1.67;;;;;;;;;;4804586;29;20023;-68
2022/09/15 01:33:34;;;;;;;4.60;1.38;;;;;;;;;;4804801;29;20037;-68
2022/09/15 01:36:04;;;;;;;3.45;1.38;;;;;;;;;;4804761;29;20035;-68
2022/09/15 01:38:30;;;;;;;3.10;1.17;;;;;;;;;;4803606;29;20042;-68
2022/09/15 01:41:02;;;;;;;6.45;1.17;;;;;;;;;;4804714;29;20035;-68
2022/09/15 01:43:29;;;;;;;4.82;1.40;;;;;;;;;;4804849;29;20041;-68
2022/09/15 01:45:55;;;;;;;4.55;1.40;;;;;;;;;;4804477;29;20512;-68
2022/09/15 01:48:23;;;;;;;4.13;1.25;;;;;;;;;;4804593;29;20035;-68
2022/09/15 01:50:52;;;;;;;6.55;1.67;;;;;;;;;;4804845;29;20034;-68
2022/09/15 01:53:20;;;;;;;5.53;1.40;;;;;;;;;;4804675;29;20497;-68
2022/09/15 01:55:51;;;;;;;4.47;1.10;;;;;;;;;;4804695;29;20027;-68
2022/09/15 01:58:17;;;;;;;;;;;;;;;;;;4805077;29;20432;-68
2022/09/15 02:00:47;;;;;;;3.40;1.70;;;;;;;;;;4804322;29;19915;-68
2022/09/15 02:03:34;;;;;;;3.55;1.25;;;;;;;;;;4807882;29;20710;-68
2022/09/15 02:06:03;;;;;;;4.53;1.70;;;;;;;;;;4807225;29;20023;-68
2022/09/15 02:08:56;;;;;;;5.20;1.40;;;;;;;;;;4808155;29;20033;-68
2022/09/15 02:11:26;;;;;;;4.90;1.77;;;;;;;;;;4807499;29;20054;-67
2022/09/15 02:13:59;;;;;;;3.50;1.50;;;;;;;;;;4807815;29;20061;-68
2022/09/15 02:16:28;;;;;;;5.65;1.40;;;;;;;;;;4807881;29;20042;-68
2022/09/15 02:18:56;;;;;;;4.07;1.40;;;;;;;;;;4807810;29;20029;-68
2022/09/15 02:21:29;;;;;;;8.50;1.50;;;;;;;;;;4807777;29;20030;-68
2022/09/15 02:24:00;;;;;;;6.93;1.42;;;;;;;;;;4807451;29;20038;-68
2022/09/15 02:26:28;;;;;;;3.00;1.27;;;;;;;;;;4807675;29;20079;-68
2022/09/15 02:28:55;;;;;;;3.13;1.30;;;;;;;;;;4807302;29;20434;-68
2022/09/15 02:31:23;;;;;;;5.32;1.63;;;;;;;;;;4807609;29;20027;-68
2022/09/15 02:34:01;;;;;;;3.28;1.80;;;;;;;;;;4807527;29;20038;-68
2022/09/15 02:36:28;;;;;;;3.78;1.30;;;;;;;;;;4807505;29;20023;-68
2022/09/15 02:39:05;;;;;;;4.82;2.05;;;;;;;;;;4807431;29;20512;-68
2022/09/15 02:41:33;;;;;;;2.85;1.33;;;;;;;;;;4807565;29;20031;-68
2022/09/15 02:43:59;;;;;;;5.28;1.40;;;;;;;;;;4806982;29;20045;-68
2022/09/15 02:46:26;;;;;;;2.33;1.50;;;;;;;;;;4807205;29;20027;-68
2022/09/15 02:48:52;;;;;;;4.70;1.70;;;;;;;;;;4807255;29;20396;-68
2022/09/15 02:51:19;;;;;;;4.38;1.60;;;;;;;;;;4807357;29;20027;-68
2022/09/15 02:53:45;;;;;;;4.30;1.60;;;;;;;;;;4805863;29;20627;-68
2022/09/15 02:56:11;;;;;;;7.82;1.60;;;;;;;;;;4807445;29;20035;-68
2022/09/15 02:58:38;;;;;;;4.30;1.40;;;;;;;;;;4807052;29;20396;-68
2022/09/15 03:01:06;;;;;;;4.70;1.88;;;;;;;;;;4807258;29;20023;-68
2022/09/15 03:03:33;;;;;;;3.15;1.50;;;;;;;;;;4806963;29;20041;-68
2022/09/15 03:06:21;;;;;;;4.35;1.40;;;;;;;;;;4806247;29;20353;-68
2022/09/15 03:08:50;;;;;;;5.75;1.77;;;;;;;;;;4805777;29;20042;-68
2022/09/15 03:11:18;;;;;;;6.88;1.63;;;;;;;;;;4806884;29;20587;-67
2022/09/15 03:13:44;;;;;;;5.50;1.50;;;;;;;;;;4806076;29;20103;-68
2022/09/15 03:16:12;;;;;;;5.28;1.55;;;;;;;;;;4806795;29;20392;-68
2022/09/15 03:18:38;;;;;;;3.35;1.30;;;;;;;;;;4806894;29;20567;-68
2022/09/15 03:21:06;;;;;;;5.80;1.67;;;;;;;;;;4806742;29;20060;-68
2022/09/15 03:23:33;;;;;;;5.38;1.52;;;;;;;;;;4806680;29;20041;-68
2022/09/15 03:25:59;;;;;;;7.70;1.48;;;;;;;;;;4806651;29;20400;-68
2022/09/15 03:28:26;;;;;;;3.90;1.40;;;;;;;;;;4806154;29;20042;-68
2022/09/15 03:30:53;;;;;;;6.80;1.58;;;;;;;;;;4806618;29;20027;-68
2022/09/15 03:33:20;;;;;;;3.08;1.50;;;;;;;;;;4806442;29;20043;-68
2022/09/15 03:35:46;;;;;;;2.92;1.42;;;;;;;;;;4806402;29;20023;-68
2022/09/15 03:38:15;;;;;;;8.07;1.75;;;;;;;;;;4806435;29;20030;-68
2022/09/15 03:40:42;;;;;;;2.53;1.25;;;;;;;;;;4805066;29;20392;-68
2022/09/15 03:43:09;;;;;;;2.28;1.45;;;;;;;;;;4805947;29;20489;-68
2022/09/15 03:45:36;;;;;;;5.10;1.60;;;;;;;;;;4806476;29;20031;-68
2022/09/15 03:48:06;;;;;;;6.78;1.35;;;;;;;;;;4806191;29;20034;-68
2022/09/15 03:50:35;;;;;;;5.10;1.67;;;;;;;;;;4806241;29;20103;-68
2022/09/15 03:53:02;;;;;;;4.63;1.50;;;;;;;;;;4804948;29;20027;-68
2022/09/15 03:55:28;;;;;;;3.85;1.42;;;;;;;;;;4806153;29;20030;-68
2022/09/15 03:57:55;;;;;;;5.57;1.60;;;;;;;;;;4805682;29;20056;-68
2022/09/15 04:00:22;;;;;;;8.93;1.85;;;;;;;;;;4805907;29;20031;-68
2022/09/15 04:02:48;;;;;;;6.32;1.60;;;;;;;;;;4806134;29;20034;-68
2022/09/15 04:05:14;;;;;;;5.13;1.48;;;;;;;;;;4805137;29;20042;-68
2022/09/15 04:07:41;;;;;;;4.18;1.73;;;;;;;;;;4805906;29;20037;-68
2022/09/15 04:10:08;;;;;;;3.88;1.40;;;;;;;;;;4805919;29;20027;-67
2022/09/15 04:12:35;;;;;;;6.15;1.70;;;;;;;;;;4805216;29;20054;-68
2022/09/15 04:15:01;;;;;;;6.60;1.75;;;;;;;;;;4806068;29;20034;-68
2022/09/15 04:17:28;;;;;;;8.88;1.90;;;;;;;;;;4804884;29;20030;-68
2022/09/15 04:19:54;;;;;;;5.45;1.60;;;;;;;;;;4806004;29;20041;-68
2022/09/15 04:22:20;;;;;;;5.57;1.88;;;;;;;;;;4805515;29;20030;-68
2022/09/15 04:24:47;;;;;;;4.05;1.52;;;;;;;;;;4804825;29;20031;-67
2022/09/15 04:27:14;;;;;;;4.93;1.40;;;;;;;;;;4805530;29;20026;-68
2022/09/15 04:29:41;;;;;;;4.65;1.70;;;;;;;;;;4805646;29;20038;-68
2022/09/15 04:32:07;;;;;;;6.50;1.73;;;;;;;;;;4805531;29;20485;-68
2022/09/15 04:34:34;;;;;;;4.22;1.65;;;;;;;;;;4805559;29;20031;-68
2022/09/15 04:37:01;;;;;;;7.13;2.20;;;;;;;;;;4805332;29;20030;-68
2022/09/15 04:39:27;;;;;;;3.53;1.50;;;;;;;;;;4805215;29;20412;-67
2022/09/15 04:41:54;;;;;;;7.13;1.63;;;;;;;;;;4805146;29;20031;-67
2022/09/15 04:44:20;;;;;;;8.45;2.10;;;;;;;;;;4805343;29;20039;-67
2022/09/15 04:46:47;;;;;;;4.63;1.48;;;;;;;;;;4805398;29;20049;-67
2022/09/15 04:49:14;;;;;;;3.65;1.52;;;;;;;;;;4805252;29;20027;-67
2022/09/15 04:51:40;;;;;;;4.43;1.52;;;;;;;;;;4805182;29;20079;-67
2022/09/15 04:54:07;;;;;;;3.72;1.70;;;;;;;;;;4804956;29;20478;-67
2022/09/15 04:56:33;;;;;;;5.28;1.50;;;;;;;;;;4805171;29;20682;-67
2022/09/15 04:58:59;;;;;;;4.60;1.80;;;;;;;;;;4804020;29;20045;-67
2022/09/15 05:01:28;;;;;;;5.35;1.70;;;;;;;;;;4805099;29;20039;-67
2022/09/15 05:03:54;;;;;;;8.55;2.10;;;;;;;;;;4805121;29;20049;-67
2022/09/15 05:06:22;;;;;;;4.65;1.67;;;;;;;;;;4804459;29;20038;-67
2022/09/15 05:08:52;;;;;;;5.45;1.83;;;;;;;;;;4804842;29;20030;-67
2022/09/15 05:11:19;;;;;;;5.47;1.90;;;;;;;;;;4805088;29;20051;-67
2022/09/15 05:13:45;;;;;;;3.05;1.90;;;;;;;;;;4804689;29;20047;-67
2022/09/15 05:16:13;;;;;;;4.10;1.77;;;;;;;;;;4805045;29;20400;-67
2022/09/15 05:18:43;;;;;;;10.13;2.63;;;;;;;;;;4805028;29;20458;-67
2022/09/15 05:21:10;;;;;;;7.83;1.77;;;;;;;;;;4805046;29;20100;-67
2022/09/15 05:23:37;;;;;;;7.90;1.98;;;;;;;;;;4804453;29;20047;-67
2022/09/15 05:26:08;;;;;;;5.75;1.92;;;;;;;;;;4805246;29;20035;-67
2022/09/15 05:28:34;;;;;;;;;;;;;;;;;;4805303;29;20045;-67
2022/09/15 05:31:00;;;;;;;7.13;1.90;;;;;;;;;;4804975;29;19993;-67
2022/09/15 05:33:26;;;;;;;6.78;1.67;;;;;;;;;;4804844;29;20485;-67
2022/09/15 05:35:54;;;;;;;6.20;2.05;;;;;;;;;;4803796;29;20087;-67
2022/09/15 05:38:21;;;;;;;4.25;1.73;;;;;;;;;;4808329;29;20034;-67
2022/09/15 05:40:47;;;;;;;4.28;2.22;;;;;;;;;;4808525;29;20039;-67
2022/09/15 05:43:14;;;;;;;3.80;1.63;;;;;;;;;;4808180;29;20396;-67
2022/09/15 05:45:41;;;;;;;4.38;1.67;;;;;;;;;;4808252;29;20382;-67
2022/09/15 05:48:11;;;;;;;7.78;2.20;;;;;;;;;;4808560;29;20037;-67
2022/09/15 05:50:38;;;;;;;5.60;1.58;;;;;;;;;;4808220;29;20023;-67
2022/09/15 05:53:06;;;;;;;5.53;1.90;;;;;;;;;;4807765;29;20489;-67
2022/09/15 05:55:37;;;;;;;10.20;1.95;;;;;;;;;;4808024;29;20034;-67
2022/09/15 05:58:03;;;;;;;4.88;1.70;;;;;;;;;;4807302;29;20038;-67
2022/09/15 06:00:30;;;;;;;4.05;1.65;;;;;;;;;;4808033;29;20027;-67
2022/09/15 06:02:56;;;;;;;4.32;1.92;;;;;;;;;;4807945;29;20042;-67
2022/09/15 06:05:22;;;;;;;3.13;2.13;;;;;;;;;;4807611;29;20041;-67
2022/09/15 06:07:49;;;;;;;5.03;1.80;;;;;;;;;;4807638;29;20516;-67
2022/09/15 06:10:15;;;;;;;8.43;1.65;;;;;;;;;;4804322;29;20103;-67
2022/09/15 06:12:41;;;;;;;3.22;1.70;;;;;;;;;;4790547;29;20047;-67
2022/09/15 06:15:08;;;;;;;7.03;1.90;;;;;;;;;;4788517;30;20027;-67
2022/09/15 06:17:34;;;;;;;6.25;1.60;;;;;;;;;;4789158;30;20039;-67
2022/09/15 06:20:04;;;;;;;5.63;1.70;;;;;;;;;;4789147;30;20031;-67
2022/09/15 06:22:31;;;;;;;4.57;1.73;;;;;;;;;;4788427;30;20031;-67
2022/09/15 06:24:58;;;;;;;10.15;2.05;;;;;;;;;;4789055;30;20045;-67
2022/09/15 06:27:25;;;;;;;4.80;1.52;;;;;;;;;;4788788;30;20028;-66
2022/09/15 06:29:51;;;;;;;5.13;1.48;;;;;;;;;;4788297;29;20039;-66
2022/09/15 06:32:17;;;;;;;5.72;1.65;;;;;;;;;;4787789;30;20431;-66
2022/09/15 06:34:44;;;;;;;7.63;1.73;;;;;;;;;;4784940;29;20039;-67
2022/09/15 06:37:11;;;;;;;8.10;1.80;;;;;;;;;;4782211;29;20453;-67
2022/09/15 06:39:37;;;;;;;9.27;1.75;;;;;;;;;;4773059;29;20051;-66
2022/09/15 06:42:04;;;;;;;5.90;1.75;;;;;;;;;;4792410;29;20031;-66
2022/09/15 06:44:30;;;;;;;5.63;1.80;;;;;;;;;;4787792;29;20123;-67
2022/09/15 06:46:56;;;;;;;8.07;1.88;;;;;;;;;;4785818;29;20037;-66
2022/09/15 06:49:24;;;;;;;2.20;1.67;;;;;;;;;;4787554;29;20724;-66
2022/09/15 06:51:50;;;;;;;2.70;1.45;;;;;;;;;;4790758;29;20023;-67
2022/09/15 06:54:17;;;;;;;3.13;1.52;;;;;;;;;;4786909;30;20035;-65
2022/09/15 06:56:43;;;;;;;6.53;1.48;;;;;;;;;;4787029;30;20024;-65
2022/09/15 06:59:13;;;;;;;5.38;1.60;;;;;;;;;;4787384;30;20442;-65
2022/09/15 07:01:40;;;;;;;7.00;1.80;;;;;;;;;;4787226;30;20053;-66
2022/09/15 07:04:08;;;;;;;5.75;1.70;;;;;;;;;;4787935;29;20413;-65
2022/09/15 07:06:36;;;;;;;6.95;2.00;;;;;;;;;;4786774;29;20405;-65
2022/09/15 07:09:03;;;;;;;4.82;1.85;;;;;;;;;;4786825;29;20031;-66
2022/09/15 07:11:29;;;;;;;2.35;1.45;;;;;;;;;;4787149;30;20019;-65
2022/09/15 07:13:56;;;;;;;6.05;1.60;;;;;;;;;;4785816;30;20394;-66
2022/09/15 07:16:24;;;;;;;3.58;1.58;;;;;;;;;;4786315;30;20527;-67
2022/09/15 07:18:50;;;;;;;4.28;1.80;;;;;;;;;;4785785;30;20480;-66
2022/09/15 07:21:19;;;;;;;4.35;1.30;;;;;;;;;;4784481;29;20033;-65
2022/09/15 07:23:45;;;;;;;3.35;1.70;;;;;;;;;;4785115;30;20047;-66
2022/09/15 07:26:20;;;;;;;5.15;1.60;;;;;;;;;;4786270;29;20028;-66
2022/09/15 07:28:50;;;;;;;8.52;1.55;;;;;;;;;;4786839;29;20041;-65
2022/09/15 07:31:18;;;;;;;5.80;1.70;;;;;;;;;;4786817;30;20031;-66
2022/09/15 07:33:44;;;;;;;3.58;1.75;;;;;;;;;;4787248;29;20039;-65
2022/09/15 07:36:11;;;;;;;3.85;1.30;;;;;;;;;;4786877;30;20031;-66
2022/09/15 07:38:41;;;;;;;2.78;1.40;;;;;;;;;;4785880;30;20042;-67
2022/09/15 07:41:18;;;;;;;3.83;1.67;;;;;;;;;;4793658;29;20031;-67
2022/09/15 07:43:48;;;;;;;2.70;1.52;;;;;;;;;;4785662;29;20040;-68
2022/09/15 07:46:15;;;;;;;2.38;1.23;;;;;;;;;;4785285;29;20509;-67
2022/09/15 07:48:43;;;;;;;4.25;1.52;;;;;;;;;;4793469;29;20041;-67
2022/09/15 07:51:09;;;;;;;3.83;1.52;;;;;;;;;;4800141;29;20459;-67
2022/09/15 07:53:36;;;;;;;3.42;1.60;;;;;;;;;;4786933;29;20049;-66
2022/09/15 07:56:02;;;;;;;6.30;1.42;;;;;;;;;;4784608;30;20057;-68
2022/09/15 07:58:28;;;;;;;3.10;1.50;;;;;;;;;;4793068;29;20053;-67
2022/09/15 08:01:00;;;;;;;15.98;1.80;;;;;;;;;;4788567;29;20030;-68
2022/09/15 08:03:26;;;;;;;2.33;1.50;;;;;;;;;;4785116;29;20046;-68
2022/09/15 08:05:57;;;;;;;4.57;1.55;;;;;;;;;;4784811;30;20058;-68
2022/09/15 08:08:23;;;;;;;;;;;;;;;;;;4786272;30;20362;-68
2022/09/15 08:10:49;;;;;;;4.15;1.60;;;;;;;;;;4784966;29;19917;-68
2022/09/15 08:13:16;;;;;;;4.15;1.50;;;;;;;;;;4784863;29;20051;-68
2022/09/15 08:15:43;;;;;;;7.40;1.60;;;;;;;;;;4785377;29;20039;-68
2022/09/15 08:18:10;;;;;;;4.40;1.30;;;;;;;;;;4784174;29;20409;-69
2022/09/15 08:20:39;;;;;;;3.83;1.77;;;;;;;;;;4784634;29;20039;-69
2022/09/15 08:23:06;;;;;;;7.22;1.65;;;;;;;;;;4784294;29;20096;-69
2022/09/15 08:25:32;;;;;;;5.25;1.80;;;;;;;;;;4783126;29;20057;-69
2022/09/15 08:27:59;;;;;;;2.20;1.30;;;;;;;;;;4785653;29;20027;-69
2022/09/15 08:30:26;;;;;;;3.20;1.70;;;;;;;;;;4785214;29;20405;-68
2022/09/15 08:32:52;;;;;;;7.93;1.77;;;;;;;;;;4784506;30;20402;-68
2022/09/15 08:35:19;;;;;;;3.50;1.40;;;;;;;;;;4785190;29;20213;-68
2022/09/15 08:37:46;;;;;;;3.92;1.60;;;;;;;;;;4792167;29;20038;-69
2022/09/15 08:40:30;;;;;;;6.20;1.70;;;;;;;;;;4784413;29;20054;-69
2022/09/15 08:42:57;;;;;;;7.30;1.67;;;;;;;;;;4784594;29;20049;-68
2022/09/15 08:45:28;;;;;;;2.53;1.48;;;;;;;;;;4784270;29;20035;-69
2022/09/15 08:47:58;;;;;;;3.38;1.67;;;;;;;;;;4782834;29;20043;-69
2022/09/15 08:50:42;;;;;;;3.33;1.75;;;;;;;;;;4784881;30;20023;-69
2022/09/15 08:53:16;;;;;;;5.68;1.50;;;;;;;;;;4784982;30;20339;-69
2022/09/15 08:55:49;;;;;;;4.35;1.80;;;;;;;;;;4784821;29;20349;-69
2022/09/15 08:58:17;;;;;;;3.17;1.50;;;;;;;;;;4784439;29;20027;-69
2022/09/15 09:00:45;;;;;;;2.78;1.50;;;;;;;;;;4781303;29;20023;-69
2022/09/15 09:03:11;;;;;;;5.72;1.60;;;;;;;;;;4784995;30;20035;-69
2022/09/15 09:05:44;;;;;;;4.65;1.83;;;;;;;;;;4783906;29;20035;-69
2022/09/15 09:08:10;;;;;;;2.22;1.25;;;;;;;;;;4784459;30;20035;-69
2022/09/15 09:10:45;;;;;;;1.90;1.40;;;;;;;;;;4784068;29;20039;-69
2022/09/15 09:13:30;;;;;;;4.07;1.83;;;;;;;;;;4784400;30;20459;-69
2022/09/15 09:15:59;;;;;;;3.95;1.40;;;;;;;;;;4783668;29;20043;-70
2022/09/15 09:18:45;;;;;;;2.70;1.40;;;;;;;;;;4783699;29;20466;-68
2022/09/15 09:21:12;;;;;;;3.08;1.42;;;;;;;;;;4783324;29;20473;-69
2022/09/15 09:23:45;;;;;;;3.35;1.42;;;;;;;;;;4783189;29;20040;-69
2022/09/15 09:26:11;;;;;;;3.08;1.50;;;;;;;;;;4784086;29;20167;-69
2022/09/15 09:28:58;;;;;;;2.22;1.42;;;;;;;;;;4784104;29;20034;-69
2022/09/15 09:31:25;;;;;;;4.15;1.45;;;;;;;;;;4783928;29;20046;-68
2022/09/15 09:34:10;;;;;;;3.40;1.30;;;;;;;;;;4784416;29;20032;-69
2022/09/15 09:36:36;;;;;;;4.95;1.48;;;;;;;;;;4784259;29;20069;-69
2022/09/15 09:39:03;;;;;;;2.97;1.20;;;;;;;;;;4785141;29;20420;-69
2022/09/15 09:41:35;;;;;;;2.30;1.10;;;;;;;;;;4791622;29;20565;-69
2022/09/15 09:44:09;;;;;;;3.95;1.40;;;;;;;;;;4795225;29;20043;-69
2022/09/15 09:46:35;;;;;;;3.58;1.38;;;;;;;;;;4800784;29;20034;-69
2022/09/15 09:49:15;;;;;;;2.65;1.48;;;;;;;;;;4783874;29;20099;-68
2022/09/15 09:51:51;;;;;;;4.20;1.35;;;;;;;;;;4782818;30;20037;-68
2022/09/15 09:54:19;;;;;;;4.45;1.55;;;;;;;;;;4783599;29;20035;-68
2022/09/15 09:56:49;;;;;;;6.85;1.42;;;;;;;;;;4794700;29;20497;-68
2022/09/15 09:59:16;;;;;;;;;;;;;;;;;;4783807;29;20523;-68
2022/09/15 10:02:02;;;;;;;3.58;1.40;;;;;;;;;;4793563;29;19913;-68
2022/09/15 10:04:28;;;;;;;5.40;1.30;;;;;;;;;;4801673;29;20535;-69
2022/09/15 10:06:55;;;;;;;3.65;1.42;;;;;;;;;;4802629;29;20038;-68
2022/09/15 10:09:21;;;;;;;3.15;1.00;;;;;;;;;;4802843;29;20111;-69
2022/09/15 10:11:56;;;;;;;2.20;1.10;;;;;;;;;;4802416;29;20523;-68
2022/09/15 10:14:27;;;;;;;3.72;1.55;;;;;;;;;;4801120;29;20064;-68
2022/09/15 10:16:58;;;;;;;2.88;1.48;;;;;;;;;;4802546;29;20071;-68
2022/09/15 10:19:25;;;;;;;2.33;1.30;;;;;;;;;;4801368;29;20039;-69
2022/09/15 10:21:51;;;;;;;3.10;1.13;;;;;;;;;;4800997;29;20064;-68
2022/09/15 10:24:24;;;;;;;2.83;1.45;;;;;;;;;;4805761;29;20046;-68
2022/09/15 10:26:50;;;;;;;3.72;1.30;;;;;;;;;;4804939;29;20031;-69
2022/09/15 10:29:18;;;;;;;2.50;1.23;;;;;;;;;;4804455;29;20053;-68
2022/09/15 10:31:45;;;;;;;3.00;1.10;;;;;;;;;;4788818;29;20532;-68
2022/09/15 10:34:31;;;;;;;2.92;1.30;;;;;;;;;;4785382;29;20039;-69
2022/09/15 10:37:13;;;;;;;9.63;1.40;;;;;;;;;;4786717;29;20043;-68
2022/09/15 10:39:52;;;;;;;7.38;1.48;;;;;;;;;;4787739;29;20403;-68
2022/09/15 10:42:37;;;;;;;1.90;0.82;;;;;;;;;;4787126;29;20031;-68
2022/09/15 10:45:03;;;;;;;3.22;1.30;;;;;;;;;;4787537;30;20047;-67
2022/09/15 10:47:41;;;;;;;2.17;1.05;;;;;;;;;;4787341;29;20028;-68
2022/09/15 10:50:37;;;;;;;4.18;1.30;;;;;;;;;;4787552;29;20030;-68
2022/09/15 10:53:09;;;;;;;2.20;1.30;;;;;;;;;;4766169;30;20052;-73
2022/09/15 10:55:44;;;;;;;2.47;1.05;;;;;;;;;;4765926;30;20109;-72
2022/09/15 10:58:11;;;;;;;5.22;1.30;;;;;;;;;;4765943;30;20549;-69
2022/09/15 11:00:45;;;;;;;5.55;1.38;;;;;;;;;;4767030;30;20042;-70
2022/09/15 11:03:31;;;;;;;1.83;1.20;;;;;;;;;;4766103;30;20051;-71
2022/09/15 11:06:08;;;;;;;1.92;1.20;;;;;;;;;;4766171;30;20674;-70
2022/09/15 11:08:53;;;;;;;2.05;1.02;;;;;;;;;;4767060;30;20593;-70
2022/09/15 11:11:37;;;;;;;1.52;0.95;;;;;;;;;;4766667;30;20066;-69
2022/09/15 11:14:15;;;;;;;1.45;1.25;;;;;;;;;;4767045;30;20056;-70
2022/09/15 11:16:42;;;;;;;3.13;1.10;;;;;;;;;;4766927;30;20054;-71
2022/09/15 11:19:27;;;;;;;2.53;1.30;;;;;;;;;;4766747;30;20032;-71
2022/09/15 11:22:13;;;;;;;1.63;1.02;;;;;;;;;;4766742;30;20498;-68
2022/09/15 11:24:58;;;;;;;3.92;1.20;;;;;;;;;;4776034;30;20051;-69
2022/09/15 11:27:30;;;;;;;2.22;1.15;;;;;;;;;;4784170;30;20039;-70
2022/09/15 11:30:00;;;;;;;3.55;1.00;;;;;;;;;;4798982;29;20035;-68
2022/09/15 11:32:52;;;;;;;3.83;1.40;;;;;;;;;;4805493;29;20489;-66
2022/09/15 11:35:28;;;;;;;2.78;1.27;;;;;;;;;;4771523;30;20079;-66
2022/09/15 11:37:58;;;;;;;3.42;1.35;;;;;;;;;;4764289;30;20036;-68
2022/09/15 11:40:31;;;;;;;1.58;1.02;;;;;;;;;;4764752;30;20108;-68
2022/09/15 11:43:02;;;;;;;2.10;1.10;;;;;;;;;;4749234;30;20044;-68
2022/09/15 11:45:34;;;;;;;1.70;1.23;;;;;;;;;;4766605;30;20051;-66
2022/09/15 11:48:11;;;;;;;1.35;1.08;;;;;;;;;;4764034;30;20032;-67
2022/09/15 11:50:40;;;;;;;3.65;1.40;;;;;;;;;;4765507;30;20032;-66
2022/09/15 11:53:26;;;;;;;3.50;1.08;;;;;;;;;;4766030;30;20047;-67
2022/09/15 11:56:21;;;;;;;1.75;0.98;;;;;;;;;;4766654;30;20062;-68
2022/09/15 11:59:06;;;;;;;6.63;1.30;;;;;;;;;;4764362;30;20042;-68
2022/09/15 12:01:55;;;;;;;1.77;1.15;;;;;;;;;;4763646;30;20036;-68
2022/09/15 12:04:21;;;;;;;3.10;1.30;;;;;;;;;;4763603;30;20050;-68
2022/09/15 12:06:59;;;;;;;1.92;1.02;;;;;;;;;;4764535;30;20047;-68
2022/09/15 12:09:26;;;;;;;1.45;1.10;;;;;;;;;;4764394;30;20040;-70
2022/09/15 12:11:54;;;;;;;2.33;0.82;;;;;;;;;;4771531;30;20397;-70
2022/09/15 12:14:23;;;;;;;1.80;1.00;;;;;;;;;;4785854;30;20035;-69
2022/09/15 12:16:50;;;;;;;1.23;1.13;;;;;;;;;;4784298;29;20363;-69
2022/09/15 12:19:16;;;;;;;1.58;1.05;;;;;;;;;;4789241;29;20047;-69
2022/09/15 12:22:01;;;;;;;2.10;1.15;;;;;;;;;;4785446;30;20388;-69
2022/09/15 12:24:34;;;;;;;1.67;1.23;;;;;;;;;;4784828;30;20039;-69
2022/09/15 12:27:01;;;;;;;1.25;1.10;;;;;;;;;;4784384;29;20035;-69
2022/09/15 12:29:27;;;;;;;1.13;0.90;;;;;;;;;;4784813;29;20122;-69
2022/09/15 12:32:12;;;;;;;0.98;0.65;;;;;;;;;;4784183;29;20084;-69
2022/09/15 12:34:38;;;;;;;0.80;0.80;;;;;;;;;;4792580;29;20438;-69
2022/09/15 12:37:14;;;;;;;3.25;0.73;;;;;;;;;;4799637;29;20027;-69
2022/09/15 12:39:42;;;;;;;2.45;0.82;;;;;;;;;;4793404;29;20032;-70
2022/09/15 12:42:22;;;;;;;1.60;0.75;;;;;;;;;;4785236;30;20031;-69
2022/09/15 12:44:55;;;;;;;1.05;0.70;;;;;;;;;;4783415;30;20039;-69
2022/09/15 12:47:21;;;;;;;4.15;0.80;;;;;;;;;;4781423;30;20035;-70
2022/09/15 12:49:49;;;;;;;1.98;1.02;;;;;;;;;;4787985;29;20026;-69
2022/09/15 12:52:16;;;;;;;4.63;0.95;;;;;;;;;;4783844;30;20049;-69
2022/09/15 12:54:49;;;;;;;1.50;0.70;;;;;;;;;;4784229;29;20035;-70
2022/09/15 12:57:27;;;;;;;1.10;0.70;;;;;;;;;;4783430;29;20035;-70
2022/09/15 13:00:13;;;;;;;2.45;0.80;;;;;;;;;;4783829;30;20179;-69
2022/09/15 13:02:44;;;;;;;0.88;0.70;;;;;;;;;;4784971;30;20027;-70
2022/09/15 13:05:11;;;;;;;1.73;0.85;;;;;;;;;;4784996;29;20057;-70
2022/09/15 13:07:53;;;;;;;1.88;0.90;;;;;;;;;;4784472;30;20050;-71
2022/09/15 13:10:46;;;;;;;1.35;0.80;;;;;;;;;;4784730;30;20136;-70
2022/09/15 13:13:18;;;;;;;0.88;0.75;;;;;;;;;;4764299;30;20056;-69
2022/09/15 13:15:46;;;;;;;4.70;0.85;;;;;;;;;;4764773;30;20051;-69
2022/09/15 13:18:14;;;;;;;2.17;0.90;;;;;;;;;;4756040;30;20040;-70
2022/09/15 13:20:44;;;;;;;2.47;0.85;;;;;;;;;;4761922;30;20047;-70
2022/09/15 13:23:13;;;;;;;2.55;0.98;;;;;;;;;;4750707;30;20142;-70
2022/09/15 13:25:41;;;;;;;4.90;0.98;;;;;;;;;;4747627;30;20043;-69
2022/09/15 13:28:11;;;;;;;4.20;0.93;;;;;;;;;;4762915;30;20038;-70
2022/09/15 13:30:37;;;;;;;;;;;;;;;;;;4755146;30;20108;-69
2022/09/15 13:33:24;;;;;;;1.02;0.77;;;;;;;;;;4762481;30;19920;-70
2022/09/15 13:35:53;;;;;;;3.03;1.00;;;;;;;;;;4763140;30;20040;-71
2022/09/15 13:38:29;;;;;;;1.30;0.70;;;;;;;;;;4761005;30;20068;-70
2022/09/15 13:41:13;;;;;;;6.22;1.02;;;;;;;;;;4764309;30;20028;-70
2022/09/15 13:43:52;;;;;;;2.03;0.85;;;;;;;;;;4765022;30;20109;-70
2022/09/15 13:46:18;;;;;;;;;;;;;;;;;;4764812;30;20035;-70
2022/09/15 13:48:45;;;;;;;0.82;0.80;;;;;;;;;;4749276;30;19914;-70
2022/09/15 13:51:15;;;;;;;2.78;1.10;;;;;;;;;;4768684;30;20052;-70
2022/09/15 13:53:41;;;;;;;1.23;0.82;;;;;;;;;;4784051;29;20038;-70
2022/09/15 13:56:10;;;;;;;2.00;0.90;;;;;;;;;;4784201;29;20034;-70
2022/09/15 13:58:39;;;;;;;1.40;0.70;;;;;;;;;;4787013;29;20039;-71
2022/09/15 14:01:06;;;;;;;3.35;1.00;;;;;;;;;;4786922;30;20398;-68
2022/09/15 14:03:40;;;;;;;3.08;1.00;;;;;;;;;;4785150;30;20051;-70
2022/09/15 14:06:30;;;;;;;1.92;0.93;;;;;;;;;;4787803;29;20029;-70
2022/09/15 14:08:58;;;;;;;1.48;0.80;;;;;;;;;;4792615;29;20031;-70
2022/09/15 14:11:26;;;;;;;2.15;1.05;;;;;;;;;;4798470;29;20031;-70
2022/09/15 14:13:53;;;;;;;1.15;0.70;;;;;;;;;;4787029;29;20047;-70
2022/09/15 14:16:32;;;;;;;1.52;0.93;;;;;;;;;;4789139;29;20061;-70
2022/09/15 14:19:00;;;;;;;1.58;1.08;;;;;;;;;;4787483;30;20515;-70
2022/09/15 14:21:31;;;;;;;2.08;1.10;;;;;;;;;;4786759;30;20031;-69
2022/09/15 14:23:59;;;;;;;2.65;0.93;;;;;;;;;;4786975;29;20043;-70
2022/09/15 14:26:29;;;;;;;2.15;1.00;;;;;;;;;;4802391;29;20398;-70
2022/09/15 14:28:59;;;;;;;2.33;1.00;;;;;;;;;;4786179;29;20538;-70
2022/09/15 14:31:37;;;;;;;2.92;0.90;;;;;;;;;;4785938;30;20031;-69
2022/09/15 14:34:23;;;;;;;3.17;0.80;;;;;;;;;;4786962;29;20341;-69
2022/09/15 14:37:07;;;;;;;1.23;0.63;;;;;;;;;;4786632;30;20431;-69
2022/09/15 14:39:36;;;;;;;3.60;0.88;;;;;;;;;;4787584;29;20492;-69
2022/09/15 14:42:22;;;;;;;3.67;0.98;;;;;;;;;;4787018;30;20035;-69
2022/09/15 14:44:49;;;;;;;3.35;0.90;;;;;;;;;;4786868;30;20085;-69
2022/09/15 14:47:25;;;;;;;1.52;0.57;;;;;;;;;;4787200;30;20037;-69
2022/09/15 14:50:06;;;;;;;1.77;0.63;;;;;;;;;;4785451;30;20055;-69
2022/09/15 14:52:35;;;;;;;3.83;1.00;;;;;;;;;;4785741;29;20034;-69
2022/09/15 14:55:03;;;;;;;1.65;1.00;;;;;;;;;;4786619;30;20032;-69
2022/09/15 14:57:31;;;;;;;3.50;0.95;;;;;;;;;;4786596;30;20034;-69
2022/09/15 15:00:00;;;;;;;6.50;1.50;;;;;;;;;;4785721;30;20042;-69
2022/09/15 15:02:36;;;;;;;2.77;0.83;;;;;;;;;;4786864;30;20379;-69
2022/09/15 15:05:08;;;;;;;2.20;0.80;;;;;;;;;;4784372;30;20401;-69